sensor_id;sensor_type;location;lat;lon;timestamp;temperature;humidity
38592;DHT22;24356;48.460;11.450;2023-02-28T00:00:48;-1.50;82.10
38592;DHT22;24356;48.460;11.450;2023-02-28T00:03:14;-1.50;81.90
38592;DHT22;24356;48.460;11.450;2023-02-28T00:05:41;-1.60;82.00
38592;DHT22;24356;48.460;11.450;2023-02-28T00:08:07;-1.60;82.00
38592;DHT22;24356;48.460;11.450;2023-02-28T00:10:33;-1.60;82.10
38592;DHT22;24356;48.460;11.450;2023-02-28T00:13:05;-1.60;82.00
38592;DHT22;24356;48.460;11.450;2023-02-28T00:15:31;-1.60;82.00
38592;DHT22;24356;48.460;11.450;2023-02-28T00:17:58;-1.60;82.10
38592;DHT22;24356;48.460;11.450;2023-02-28T00:20:25;-1.60;82.00
38592;DHT22;24356;48.460;11.450;2023-02-28T00:22:52;-1.60;82.10
38592;DHT22;24356;48.460;11.450;2023-02-28T00:27:47;-1.70;82.00
38592;DHT22;24356;48.460;11.450;2023-02-28T00:30:15;-1.70;82.10
38592;DHT22;24356;48.460;11.450;2023-02-28T00:32:41;-1.60;82.00
38592;DHT22;24356;48.460;11.450;2023-02-28T00:35:07;-1.70;82.00
38592;DHT22;24356;48.460;11.450;2023-02-28T00:37:34;-1.70;81.90
38592;DHT22;24356;48.460;11.450;2023-02-28T00:40:00;-1.80;81.90
38592;DHT22;24356;48.460;11.450;2023-02-28T00:42:25;-1.80;81.90
38592;DHT22;24356;48.460;11.450;2023-02-28T00:44:51;-1.80;81.90
38592;DHT22;24356;48.460;11.450;2023-02-28T00:47:17;-1.80;81.80
38592;DHT22;24356;48.460;11.450;2023-02-28T00:49:43;-1.80;81.80
38592;DHT22;24356;48.460;11.450;2023-02-28T00:52:08;-1.90;81.80
38592;DHT22;24356;48.460;11.450;2023-02-28T00:54:34;-1.90;81.80
38592;DHT22;24356;48.460;11.450;2023-02-28T00:57:00;-1.90;81.80
38592;DHT22;24356;48.460;11.450;2023-02-28T00:59:26;-1.90;81.90
38592;DHT22;24356;48.460;11.450;2023-02-28T01:01:51;-2.00;81.90
38592;DHT22;24356;48.460;11.450;2023-02-28T01:04:17;-2.00;82.00
38592;DHT22;24356;48.460;11.450;2023-02-28T01:06:42;-2.00;82.00
38592;DHT22;24356;48.460;11.450;2023-02-28T01:09:08;-2.10;82.00
38592;DHT22;24356;48.460;11.450;2023-02-28T01:11:34;-2.10;82.00
38592;DHT22;24356;48.460;11.450;2023-02-28T01:14:00;-2.10;82.00
38592;DHT22;24356;48.460;11.450;2023-02-28T01:16:26;-2.10;82.00
38592;DHT22;24356;48.460;11.450;2023-02-28T01:18:52;-2.20;82.00
38592;DHT22;24356;48.460;11.450;2023-02-28T01:21:19;-2.20;82.10
38592;DHT22;24356;48.460;11.450;2023-02-28T01:23:46;-2.20;82.10
38592;DHT22;24356;48.460;11.450;2023-02-28T01:26:14;-2.20;82.10
38592;DHT22;24356;48.460;11.450;2023-02-28T01:28:40;-2.20;82.00
38592;DHT22;24356;48.460;11.450;2023-02-28T01:31:06;-2.20;82.10
38592;DHT22;24356;48.460;11.450;2023-02-28T01:33:32;-2.20;82.10
38592;DHT22;24356;48.460;11.450;2023-02-28T01:36:06;-2.30;82.10
38592;DHT22;24356;48.460;11.450;2023-02-28T01:38:33;-2.30;82.10
38592;DHT22;24356;48.460;11.450;2023-02-28T01:40:59;-2.30;82.20
38592;DHT22;24356;48.460;11.450;2023-02-28T01:46:08;-2.30;82.20
38592;DHT22;24356;48.460;11.450;2023-02-28T01:48:41;-2.30;82.20
38592;DHT22;24356;48.460;11.450;2023-02-28T01:51:20;-2.30;82.40
38592;DHT22;24356;48.460;11.450;2023-02-28T01:53:51;-2.20;82.40
38592;DHT22;24356;48.460;11.450;2023-02-28T01:56:21;-2.20;82.30
38592;DHT22;24356;48.460;11.450;2023-02-28T01:58:49;-2.20;82.40
38592;DHT22;24356;48.460;11.450;2023-02-28T02:01:16;-2.20;82.40
38592;DHT22;24356;48.460;11.450;2023-02-28T02:03:55;-2.20;82.30
38592;DHT22;24356;48.460;11.450;2023-02-28T02:06:23;-2.20;82.30
38592;DHT22;24356;48.460;11.450;2023-02-28T02:08:50;-2.10;82.40
38592;DHT22;24356;48.460;11.450;2023-02-28T02:11:18;-2.10;82.30
38592;DHT22;24356;48.460;11.450;2023-02-28T02:19:53;-2.10;82.40
38592;DHT22;24356;48.460;11.450;2023-02-28T02:25:30;-2.10;82.40
38592;DHT22;24356;48.460;11.450;2023-02-28T02:33:30;-2.00;82.50
38592;DHT22;24356;48.460;11.450;2023-02-28T02:36:22;-2.00;82.50
38592;DHT22;24356;48.460;11.450;2023-02-28T02:44:11;-2.00;82.50
38592;DHT22;24356;48.460;11.450;2023-02-28T02:46:42;-2.00;82.30
38592;DHT22;24356;48.460;11.450;2023-02-28T02:49:14;-2.00;82.50
38592;DHT22;24356;48.460;11.450;2023-02-28T02:51:41;-2.00;82.40
38592;DHT22;24356;48.460;11.450;2023-02-28T02:54:17;-1.90;82.50
38592;DHT22;24356;48.460;11.450;2023-02-28T02:56:46;-2.00;82.50
38592;DHT22;24356;48.460;11.450;2023-02-28T02:59:16;-1.90;82.40
38592;DHT22;24356;48.460;11.450;2023-02-28T03:01:50;-1.90;82.40
38592;DHT22;24356;48.460;11.450;2023-02-28T03:04:20;-1.90;82.50
38592;DHT22;24356;48.460;11.450;2023-02-28T03:06:47;-1.90;82.40
38592;DHT22;24356;48.460;11.450;2023-02-28T03:09:12;-1.90;82.50
38592;DHT22;24356;48.460;11.450;2023-02-28T03:11:39;-1.90;82.40
38592;DHT22;24356;48.460;11.450;2023-02-28T03:14:34;-1.90;82.50
38592;DHT22;24356;48.460;11.450;2023-02-28T03:33:11;-1.90;82.40
38592;DHT22;24356;48.460;11.450;2023-02-28T03:36:06;-1.90;82.30
38592;DHT22;24356;48.460;11.450;2023-02-28T03:38:38;-1.90;82.30
38592;DHT22;24356;48.460;11.450;2023-02-28T03:41:27;-1.90;82.40
38592;DHT22;24356;48.460;11.450;2023-02-28T03:43:58;-1.90;82.50
38592;DHT22;24356;48.460;11.450;2023-02-28T03:46:28;-1.90;82.50
38592;DHT22;24356;48.460;11.450;2023-02-28T03:49:00;-1.90;82.50
38592;DHT22;24356;48.460;11.450;2023-02-28T03:51:29;-1.90;82.50
38592;DHT22;24356;48.460;11.450;2023-02-28T03:53:58;-1.80;82.40
38592;DHT22;24356;48.460;11.450;2023-02-28T03:56:32;-1.80;82.50
38592;DHT22;24356;48.460;11.450;2023-02-28T03:59:10;-1.80;82.50
38592;DHT22;24356;48.460;11.450;2023-02-28T04:01:40;-1.80;82.60
38592;DHT22;24356;48.460;11.450;2023-02-28T04:04:10;-1.80;82.50
38592;DHT22;24356;48.460;11.450;2023-02-28T04:06:36;-1.80;82.40
38592;DHT22;24356;48.460;11.450;2023-02-28T04:09:03;-1.80;82.60
38592;DHT22;24356;48.460;11.450;2023-02-28T04:11:35;-1.80;82.60
38592;DHT22;24356;48.460;11.450;2023-02-28T04:14:05;-1.80;82.50
38592;DHT22;24356;48.460;11.450;2023-02-28T04:16:32;-1.80;82.40
38592;DHT22;24356;48.460;11.450;2023-02-28T04:18:58;-1.80;82.60
38592;DHT22;24356;48.460;11.450;2023-02-28T04:21:35;-1.80;82.60
38592;DHT22;24356;48.460;11.450;2023-02-28T04:24:02;-1.80;82.50
38592;DHT22;24356;48.460;11.450;2023-02-28T04:26:32;-1.90;82.50
38592;DHT22;24356;48.460;11.450;2023-02-28T04:28:59;-1.80;82.50
38592;DHT22;24356;48.460;11.450;2023-02-28T04:31:24;-1.90;82.60
38592;DHT22;24356;48.460;11.450;2023-02-28T04:33:50;-1.90;82.50
38592;DHT22;24356;48.460;11.450;2023-02-28T04:36:16;-1.90;82.50
38592;DHT22;24356;48.460;11.450;2023-02-28T04:38:43;-1.90;82.50
38592;DHT22;24356;48.460;11.450;2023-02-28T04:41:10;-1.90;82.40
38592;DHT22;24356;48.460;11.450;2023-02-28T04:43:35;-1.90;82.50
38592;DHT22;24356;48.460;11.450;2023-02-28T04:46:03;-1.90;82.40
38592;DHT22;24356;48.460;11.450;2023-02-28T04:48:30;-1.90;82.40
38592;DHT22;24356;48.460;11.450;2023-02-28T04:51:03;-1.90;82.40
38592;DHT22;24356;48.460;11.450;2023-02-28T04:53:29;-1.90;82.50
38592;DHT22;24356;48.460;11.450;2023-02-28T04:55:56;-1.90;82.50
38592;DHT22;24356;48.460;11.450;2023-02-28T04:58:21;-1.90;82.50
38592;DHT22;24356;48.460;11.450;2023-02-28T05:00:53;-1.90;82.40
38592;DHT22;24356;48.460;11.450;2023-02-28T05:03:20;-1.90;82.50
38592;DHT22;24356;48.460;11.450;2023-02-28T05:05:47;-2.00;82.70
38592;DHT22;24356;48.460;11.450;2023-02-28T05:08:13;-2.00;82.50
38592;DHT22;24356;48.460;11.450;2023-02-28T05:10:38;-2.00;82.60
38592;DHT22;24356;48.460;11.450;2023-02-28T05:13:04;-2.00;82.70
38592;DHT22;24356;48.460;11.450;2023-02-28T05:15:29;-2.00;82.60
38592;DHT22;24356;48.460;11.450;2023-02-28T05:17:55;-2.00;82.60
38592;DHT22;24356;48.460;11.450;2023-02-28T05:20:20;-2.00;82.60
38592;DHT22;24356;48.460;11.450;2023-02-28T05:22:46;-2.00;82.50
38592;DHT22;24356;48.460;11.450;2023-02-28T05:25:16;-2.00;82.50
38592;DHT22;24356;48.460;11.450;2023-02-28T05:27:42;-2.10;82.50
38592;DHT22;24356;48.460;11.450;2023-02-28T05:30:08;-2.10;82.50
38592;DHT22;24356;48.460;11.450;2023-02-28T05:32:39;-2.10;82.60
38592;DHT22;24356;48.460;11.450;2023-02-28T05:35:09;-2.10;82.50
38592;DHT22;24356;48.460;11.450;2023-02-28T05:37:35;-2.20;82.50
38592;DHT22;24356;48.460;11.450;2023-02-28T05:40:01;-2.20;82.60
38592;DHT22;24356;48.460;11.450;2023-02-28T05:42:26;-2.20;82.50
38592;DHT22;24356;48.460;11.450;2023-02-28T05:44:52;-2.30;82.30
38592;DHT22;24356;48.460;11.450;2023-02-28T05:47:17;-2.30;82.50
38592;DHT22;24356;48.460;11.450;2023-02-28T05:49:43;-2.30;82.50
38592;DHT22;24356;48.460;11.450;2023-02-28T05:52:08;-2.40;82.50
38592;DHT22;24356;48.460;11.450;2023-02-28T05:54:34;-2.40;82.50
38592;DHT22;24356;48.460;11.450;2023-02-28T05:57:00;-2.40;82.50
38592;DHT22;24356;48.460;11.450;2023-02-28T05:59:25;-2.40;82.70
38592;DHT22;24356;48.460;11.450;2023-02-28T06:01:51;-2.50;82.70
38592;DHT22;24356;48.460;11.450;2023-02-28T06:04:20;-2.50;82.60
38592;DHT22;24356;48.460;11.450;2023-02-28T06:06:46;-2.50;82.60
38592;DHT22;24356;48.460;11.450;2023-02-28T06:09:12;-2.50;82.60
38592;DHT22;24356;48.460;11.450;2023-02-28T06:11:38;-2.50;82.60
38592;DHT22;24356;48.460;11.450;2023-02-28T06:14:04;-2.50;82.70
38592;DHT22;24356;48.460;11.450;2023-02-28T06:16:32;-2.50;82.70
38592;DHT22;24356;48.460;11.450;2023-02-28T06:19:02;-2.50;82.70
38592;DHT22;24356;48.460;11.450;2023-02-28T06:21:29;-2.50;82.70
38592;DHT22;24356;48.460;11.450;2023-02-28T06:23:55;-2.50;82.70
38592;DHT22;24356;48.460;11.450;2023-02-28T06:26:21;-2.50;82.70
38592;DHT22;24356;48.460;11.450;2023-02-28T06:28:47;-2.50;82.70
38592;DHT22;24356;48.460;11.450;2023-02-28T06:31:15;-2.50;82.70
38592;DHT22;24356;48.460;11.450;2023-02-28T06:33:41;-2.50;82.70
38592;DHT22;24356;48.460;11.450;2023-02-28T06:36:08;-2.60;82.70
38592;DHT22;24356;48.460;11.450;2023-02-28T06:38:35;-2.60;82.70
38592;DHT22;24356;48.460;11.450;2023-02-28T06:41:01;-2.50;82.70
38592;DHT22;24356;48.460;11.450;2023-02-28T06:43:29;-2.50;82.70
38592;DHT22;24356;48.460;11.450;2023-02-28T06:45:57;-2.50;82.60
38592;DHT22;24356;48.460;11.450;2023-02-28T06:48:23;-2.40;82.40
38592;DHT22;24356;48.460;11.450;2023-02-28T06:50:49;-2.40;82.30
38592;DHT22;24356;48.460;11.450;2023-02-28T06:53:14;-2.30;82.30
38592;DHT22;24356;48.460;11.450;2023-02-28T06:55:40;-2.30;82.20
38592;DHT22;24356;48.460;11.450;2023-02-28T06:58:07;-2.20;82.20
38592;DHT22;24356;48.460;11.450;2023-02-28T07:00:44;-2.10;82.20
38592;DHT22;24356;48.460;11.450;2023-02-28T07:03:11;-2.00;82.10
38592;DHT22;24356;48.460;11.450;2023-02-28T07:05:38;-1.80;82.00
38592;DHT22;24356;48.460;11.450;2023-02-28T07:08:05;-1.70;81.80
38592;DHT22;24356;48.460;11.450;2023-02-28T07:10:32;-1.60;81.40
38592;DHT22;24356;48.460;11.450;2023-02-28T07:12:58;-1.50;81.40
38592;DHT22;24356;48.460;11.450;2023-02-28T07:15:24;-1.40;81.90
38592;DHT22;24356;48.460;11.450;2023-02-28T07:17:50;-1.20;81.70
38592;DHT22;24356;48.460;11.450;2023-02-28T07:20:16;-1.00;81.70
38592;DHT22;24356;48.460;11.450;2023-02-28T07:22:42;-0.80;81.40
38592;DHT22;24356;48.460;11.450;2023-02-28T07:25:08;-0.70;81.30
38592;DHT22;24356;48.460;11.450;2023-02-28T07:27:34;-0.50;80.90
38592;DHT22;24356;48.460;11.450;2023-02-28T07:29:59;-0.30;80.90
38592;DHT22;24356;48.460;11.450;2023-02-28T07:32:27;-0.10;80.50
38592;DHT22;24356;48.460;11.450;2023-02-28T07:34:53;0.20;80.30
38592;DHT22;24356;48.460;11.450;2023-02-28T07:37:19;0.40;79.50
38592;DHT22;24356;48.460;11.450;2023-02-28T07:39:44;0.60;79.40
38592;DHT22;24356;48.460;11.450;2023-02-28T07:42:10;0.70;79.20
38592;DHT22;24356;48.460;11.450;2023-02-28T07:44:38;0.80;78.80
38592;DHT22;24356;48.460;11.450;2023-02-28T07:47:09;0.90;78.50
38592;DHT22;24356;48.460;11.450;2023-02-28T07:49:36;0.90;78.10
38592;DHT22;24356;48.460;11.450;2023-02-28T07:52:03;0.90;77.90
38592;DHT22;24356;48.460;11.450;2023-02-28T07:54:29;0.90;77.90
38592;DHT22;24356;48.460;11.450;2023-02-28T07:56:54;1.00;77.90
38592;DHT22;24356;48.460;11.450;2023-02-28T07:59:20;1.00;77.60
38592;DHT22;24356;48.460;11.450;2023-02-28T08:01:46;1.00;77.80
38592;DHT22;24356;48.460;11.450;2023-02-28T08:04:11;1.10;77.80
38592;DHT22;24356;48.460;11.450;2023-02-28T08:06:37;1.10;77.80
38592;DHT22;24356;48.460;11.450;2023-02-28T08:09:03;1.20;77.80
38592;DHT22;24356;48.460;11.450;2023-02-28T08:11:28;1.30;77.60
38592;DHT22;24356;48.460;11.450;2023-02-28T08:13:54;1.40;77.40
38592;DHT22;24356;48.460;11.450;2023-02-28T08:16:20;1.60;77.20
38592;DHT22;24356;48.460;11.450;2023-02-28T08:18:48;1.70;77.00
38592;DHT22;24356;48.460;11.450;2023-02-28T08:21:15;1.90;76.70
38592;DHT22;24356;48.460;11.450;2023-02-28T08:23:40;2.00;76.80
38592;DHT22;24356;48.460;11.450;2023-02-28T08:26:06;2.20;76.50
38592;DHT22;24356;48.460;11.450;2023-02-28T08:28:32;2.40;76.50
38592;DHT22;24356;48.460;11.450;2023-02-28T08:30:58;2.60;76.50
38592;DHT22;24356;48.460;11.450;2023-02-28T08:33:25;2.90;76.50
38592;DHT22;24356;48.460;11.450;2023-02-28T08:35:53;3.10;76.10
38592;DHT22;24356;48.460;11.450;2023-02-28T08:38:19;3.40;76.50
38592;DHT22;24356;48.460;11.450;2023-02-28T08:40:45;3.70;76.30
38592;DHT22;24356;48.460;11.450;2023-02-28T08:43:10;4.00;75.80
38592;DHT22;24356;48.460;11.450;2023-02-28T08:45:36;4.20;75.60
38592;DHT22;24356;48.460;11.450;2023-02-28T08:48:02;4.50;74.60
38592;DHT22;24356;48.460;11.450;2023-02-28T08:50:27;4.70;74.10
38592;DHT22;24356;48.460;11.450;2023-02-28T08:52:53;4.90;74.50
38592;DHT22;24356;48.460;11.450;2023-02-28T08:55:19;5.10;74.60
38592;DHT22;24356;48.460;11.450;2023-02-28T08:57:44;5.20;74.60
38592;DHT22;24356;48.460;11.450;2023-02-28T09:00:10;5.40;74.20
38592;DHT22;24356;48.460;11.450;2023-02-28T09:02:39;5.60;74.60
38592;DHT22;24356;48.460;11.450;2023-02-28T09:05:06;5.90;74.10
38592;DHT22;24356;48.460;11.450;2023-02-28T09:07:31;6.10;74.10
38592;DHT22;24356;48.460;11.450;2023-02-28T09:09:57;6.40;73.50
38592;DHT22;24356;48.460;11.450;2023-02-28T09:12:26;6.60;73.70
38592;DHT22;24356;48.460;11.450;2023-02-28T09:14:53;6.70;73.50
38592;DHT22;24356;48.460;11.450;2023-02-28T09:17:19;6.80;73.20
38592;DHT22;24356;48.460;11.450;2023-02-28T09:19:48;6.80;72.50
38592;DHT22;24356;48.460;11.450;2023-02-28T09:22:13;6.90;72.40
38592;DHT22;24356;48.460;11.450;2023-02-28T09:24:39;6.90;72.60
38592;DHT22;24356;48.460;11.450;2023-02-28T09:27:05;7.00;72.50
38592;DHT22;24356;48.460;11.450;2023-02-28T09:29:32;7.10;72.30
38592;DHT22;24356;48.460;11.450;2023-02-28T09:31:58;7.20;73.00
38592;DHT22;24356;48.460;11.450;2023-02-28T09:34:25;7.30;72.90
38592;DHT22;24356;48.460;11.450;2023-02-28T09:36:50;7.40;72.80
38592;DHT22;24356;48.460;11.450;2023-02-28T09:39:20;7.50;72.50
38592;DHT22;24356;48.460;11.450;2023-02-28T09:41:49;7.60;72.70
38592;DHT22;24356;48.460;11.450;2023-02-28T09:44:39;7.70;72.80
38592;DHT22;24356;48.460;11.450;2023-02-28T09:47:33;7.80;72.80
38592;DHT22;24356;48.460;11.450;2023-02-28T09:50:06;8.00;73.40
38592;DHT22;24356;48.460;11.450;2023-02-28T09:52:36;8.20;73.40
38592;DHT22;24356;48.460;11.450;2023-02-28T09:57:41;8.60;72.70
38592;DHT22;24356;48.460;11.450;2023-02-28T10:05:24;8.90;72.80
38592;DHT22;24356;48.460;11.450;2023-02-28T10:08:03;9.00;72.90
38592;DHT22;24356;48.460;11.450;2023-02-28T10:13:15;9.20;73.10
38592;DHT22;24356;48.460;11.450;2023-02-28T10:15:45;9.30;72.10
38592;DHT22;24356;48.460;11.450;2023-02-28T10:18:14;9.20;70.60
38592;DHT22;24356;48.460;11.450;2023-02-28T10:20:42;9.20;71.20
38592;DHT22;24356;48.460;11.450;2023-02-28T10:23:28;9.20;71.20
38592;DHT22;24356;48.460;11.450;2023-02-28T10:26:12;9.10;70.90
38592;DHT22;24356;48.460;11.450;2023-02-28T10:28:38;8.90;71.80
38592;DHT22;24356;48.460;11.450;2023-02-28T10:31:04;8.80;71.60
38592;DHT22;24356;48.460;11.450;2023-02-28T10:33:32;8.70;71.70
38592;DHT22;24356;48.460;11.450;2023-02-28T10:35:59;8.80;72.30
38592;DHT22;24356;48.460;11.450;2023-02-28T10:38:37;8.80;71.80
38592;DHT22;24356;48.460;11.450;2023-02-28T10:43:31;8.80;72.00
38592;DHT22;24356;48.460;11.450;2023-02-28T10:48:37;8.90;71.50
38592;DHT22;24356;48.460;11.450;2023-02-28T10:51:08;9.00;71.20
38592;DHT22;24356;48.460;11.450;2023-02-28T11:01:41;9.20;71.70
38592;DHT22;24356;48.460;11.450;2023-02-28T11:07:19;9.10;70.20
38592;DHT22;24356;48.460;11.450;2023-02-28T11:09:48;9.20;70.70
38592;DHT22;24356;48.460;11.450;2023-02-28T11:14:55;9.20;71.10
38592;DHT22;24356;48.460;11.450;2023-02-28T11:17:25;9.30;71.40
38592;DHT22;24356;48.460;11.450;2023-02-28T11:19:54;9.40;70.70
38592;DHT22;24356;48.460;11.450;2023-02-28T11:22:29;9.50;71.30
38592;DHT22;24356;48.460;11.450;2023-02-28T11:24:59;9.50;70.30
38592;DHT22;24356;48.460;11.450;2023-02-28T11:27:26;9.40;71.50
38592;DHT22;24356;48.460;11.450;2023-02-28T11:30:24;9.40;70.50
38592;DHT22;24356;48.460;11.450;2023-02-28T11:32:50;9.50;70.60
38592;DHT22;24356;48.460;11.450;2023-02-28T11:35:23;9.50;72.50
38592;DHT22;24356;48.460;11.450;2023-02-28T11:37:50;9.50;71.60
38592;DHT22;24356;48.460;11.450;2023-02-28T11:40:18;9.50;71.30
38592;DHT22;24356;48.460;11.450;2023-02-28T11:43:09;9.40;70.00
38592;DHT22;24356;48.460;11.450;2023-02-28T11:46:18;9.40;70.30
38592;DHT22;24356;48.460;11.450;2023-02-28T12:02:54;9.30;71.10
38592;DHT22;24356;48.460;11.450;2023-02-28T12:05:50;9.30;70.90
38592;DHT22;24356;48.460;11.450;2023-02-28T12:11:19;9.30;72.40
38592;DHT22;24356;48.460;11.450;2023-02-28T12:19:17;9.20;72.20
38592;DHT22;24356;48.460;11.450;2023-02-28T12:22:05;9.20;72.40
38592;DHT22;24356;48.460;11.450;2023-02-28T12:27:20;9.30;72.30
38592;DHT22;24356;48.460;11.450;2023-02-28T12:29:58;9.20;71.60
38592;DHT22;24356;48.460;11.450;2023-02-28T12:32:30;9.20;72.20
38592;DHT22;24356;48.460;11.450;2023-02-28T12:40:22;9.20;72.10
38592;DHT22;24356;48.460;11.450;2023-02-28T12:43:04;9.20;71.80
38592;DHT22;24356;48.460;11.450;2023-02-28T12:46:07;9.20;72.00
38592;DHT22;24356;48.460;11.450;2023-02-28T12:51:00;9.30;71.80
38592;DHT22;24356;48.460;11.450;2023-02-28T12:53:45;9.30;71.80
38592;DHT22;24356;48.460;11.450;2023-02-28T12:59:35;9.40;71.80
38592;DHT22;24356;48.460;11.450;2023-02-28T13:08:22;9.50;72.50
38592;DHT22;24356;48.460;11.450;2023-02-28T13:10:50;9.50;72.90
38592;DHT22;24356;48.460;11.450;2023-02-28T13:13:25;9.60;72.80
38592;DHT22;24356;48.460;11.450;2023-02-28T13:16:09;9.60;73.80
38592;DHT22;24356;48.460;11.450;2023-02-28T13:18:39;9.70;73.60
38592;DHT22;24356;48.460;11.450;2023-02-28T13:21:08;9.70;74.70
38592;DHT22;24356;48.460;11.450;2023-02-28T13:23:57;9.70;75.00
38592;DHT22;24356;48.460;11.450;2023-02-28T13:34:32;10.00;75.80
38592;DHT22;24356;48.460;11.450;2023-02-28T13:42:36;10.10;77.40
38592;DHT22;24356;48.460;11.450;2023-02-28T13:47:39;10.20;77.00
38592;DHT22;24356;48.460;11.450;2023-02-28T13:50:37;10.20;77.30
38592;DHT22;24356;48.460;11.450;2023-02-28T13:55:55;10.30;76.90
38592;DHT22;24356;48.460;11.450;2023-02-28T14:01:32;10.40;75.90
38592;DHT22;24356;48.460;11.450;2023-02-28T14:06:31;10.30;74.10
38592;DHT22;24356;48.460;11.450;2023-02-28T14:09:01;10.30;73.70
38592;DHT22;24356;48.460;11.450;2023-02-28T14:11:35;10.30;74.20
38592;DHT22;24356;48.460;11.450;2023-02-28T14:14:02;10.30;74.10
38592;DHT22;24356;48.460;11.450;2023-02-28T14:16:40;10.30;76.60
38592;DHT22;24356;48.460;11.450;2023-02-28T14:24:35;10.30;74.40
38592;DHT22;24356;48.460;11.450;2023-02-28T14:27:37;10.30;74.60
38592;DHT22;24356;48.460;11.450;2023-02-28T14:38:30;10.20;72.70
38592;DHT22;24356;48.460;11.450;2023-02-28T14:40:58;10.10;72.20
38592;DHT22;24356;48.460;11.450;2023-02-28T14:43:27;10.10;72.00
38592;DHT22;24356;48.460;11.450;2023-02-28T14:46:01;10.10;71.10
38592;DHT22;24356;48.460;11.450;2023-02-28T14:48:27;10.10;70.10
38592;DHT22;24356;48.460;11.450;2023-02-28T14:50:58;10.00;68.20
38592;DHT22;24356;48.460;11.450;2023-02-28T14:53:30;10.00;68.10
38592;DHT22;24356;48.460;11.450;2023-02-28T14:55:56;10.00;68.00
38592;DHT22;24356;48.460;11.450;2023-02-28T14:58:28;9.90;67.00
38592;DHT22;24356;48.460;11.450;2023-02-28T15:00:57;9.80;66.70
38592;DHT22;24356;48.460;11.450;2023-02-28T15:03:37;9.70;67.90
38592;DHT22;24356;48.460;11.450;2023-02-28T15:06:15;9.70;66.70
38592;DHT22;24356;48.460;11.450;2023-02-28T15:08:43;9.60;66.00
38592;DHT22;24356;48.460;11.450;2023-02-28T15:13:54;9.50;66.30
38592;DHT22;24356;48.460;11.450;2023-02-28T15:16:36;9.40;67.20
38592;DHT22;24356;48.460;11.450;2023-02-28T15:21:34;9.20;67.00
38592;DHT22;24356;48.460;11.450;2023-02-28T15:24:08;9.10;66.60
38592;DHT22;24356;48.460;11.450;2023-02-28T15:26:41;9.00;66.80
38592;DHT22;24356;48.460;11.450;2023-02-28T15:29:16;8.90;66.70
38592;DHT22;24356;48.460;11.450;2023-02-28T15:31:52;8.70;66.40
38592;DHT22;24356;48.460;11.450;2023-02-28T15:36:55;8.40;67.00
38592;DHT22;24356;48.460;11.450;2023-02-28T15:39:26;8.30;67.50
38592;DHT22;24356;48.460;11.450;2023-02-28T15:42:09;8.20;67.70
38592;DHT22;24356;48.460;11.450;2023-02-28T15:44:35;8.10;68.30
38592;DHT22;24356;48.460;11.450;2023-02-28T15:47:21;7.90;68.60
38592;DHT22;24356;48.460;11.450;2023-02-28T15:50:00;7.80;68.80
38592;DHT22;24356;48.460;11.450;2023-02-28T15:52:44;7.70;68.60
38592;DHT22;24356;48.460;11.450;2023-02-28T15:55:17;7.60;68.80
38592;DHT22;24356;48.460;11.450;2023-02-28T15:57:44;7.40;68.80
38592;DHT22;24356;48.460;11.450;2023-02-28T16:00:14;7.30;69.10
38592;DHT22;24356;48.460;11.450;2023-02-28T16:02:40;7.20;69.50
38592;DHT22;24356;48.460;11.450;2023-02-28T16:07:39;6.90;70.10
38592;DHT22;24356;48.460;11.450;2023-02-28T16:10:09;6.80;70.30
38592;DHT22;24356;48.460;11.450;2023-02-28T16:12:36;6.70;70.30
38592;DHT22;24356;48.460;11.450;2023-02-28T16:15:16;6.50;70.50
38592;DHT22;24356;48.460;11.450;2023-02-28T16:17:42;6.40;70.90
38592;DHT22;24356;48.460;11.450;2023-02-28T16:22:44;6.10;71.50
38592;DHT22;24356;48.460;11.450;2023-02-28T16:25:15;6.00;71.90
38592;DHT22;24356;48.460;11.450;2023-02-28T16:27:42;5.90;72.30
38592;DHT22;24356;48.460;11.450;2023-02-28T16:30:20;5.70;72.40
38592;DHT22;24356;48.460;11.450;2023-02-28T16:32:48;5.60;72.70
38592;DHT22;24356;48.460;11.450;2023-02-28T16:35:15;5.50;72.90
38592;DHT22;24356;48.460;11.450;2023-02-28T16:37:41;5.30;73.10
38592;DHT22;24356;48.460;11.450;2023-02-28T16:40:16;5.20;73.30
38592;DHT22;24356;48.460;11.450;2023-02-28T16:42:43;5.10;73.60
38592;DHT22;24356;48.460;11.450;2023-02-28T16:45:16;5.00;74.00
38592;DHT22;24356;48.460;11.450;2023-02-28T16:47:43;4.90;74.20
38592;DHT22;24356;48.460;11.450;2023-02-28T16:50:22;4.80;74.50
38592;DHT22;24356;48.460;11.450;2023-02-28T16:52:49;4.60;74.70
38592;DHT22;24356;48.460;11.450;2023-02-28T16:55:17;4.50;74.80
38592;DHT22;24356;48.460;11.450;2023-02-28T16:57:44;4.40;75.00
38592;DHT22;24356;48.460;11.450;2023-02-28T17:00:12;4.30;75.00
38592;DHT22;24356;48.460;11.450;2023-02-28T17:02:38;4.10;75.30
38592;DHT22;24356;48.460;11.450;2023-02-28T17:05:05;4.00;75.60
38592;DHT22;24356;48.460;11.450;2023-02-28T17:07:32;3.90;75.60
38592;DHT22;24356;48.460;11.450;2023-02-28T17:09:58;3.80;76.10
38592;DHT22;24356;48.460;11.450;2023-02-28T17:12:24;3.70;76.40
38592;DHT22;24356;48.460;11.450;2023-02-28T17:14:50;3.50;76.60
38592;DHT22;24356;48.460;11.450;2023-02-28T17:17:17;3.50;76.30
38592;DHT22;24356;48.460;11.450;2023-02-28T17:19:45;3.30;76.60
38592;DHT22;24356;48.460;11.450;2023-02-28T17:22:11;3.20;77.00
38592;DHT22;24356;48.460;11.450;2023-02-28T17:24:36;3.10;77.10
38592;DHT22;24356;48.460;11.450;2023-02-28T17:27:02;3.00;77.60
38592;DHT22;24356;48.460;11.450;2023-02-28T17:29:28;2.90;77.80
38592;DHT22;24356;48.460;11.450;2023-02-28T17:31:54;2.80;78.00
38592;DHT22;24356;48.460;11.450;2023-02-28T17:34:20;2.70;78.10
38592;DHT22;24356;48.460;11.450;2023-02-28T17:36:49;2.70;78.30
38592;DHT22;24356;48.460;11.450;2023-02-28T17:39:17;2.50;78.40
38592;DHT22;24356;48.460;11.450;2023-02-28T17:41:51;2.40;78.50
38592;DHT22;24356;48.460;11.450;2023-02-28T17:44:17;2.30;78.60
38592;DHT22;24356;48.460;11.450;2023-02-28T17:46:43;2.20;78.60
38592;DHT22;24356;48.460;11.450;2023-02-28T17:49:10;2.10;78.60
38592;DHT22;24356;48.460;11.450;2023-02-28T17:51:35;2.00;78.70
38592;DHT22;24356;48.460;11.450;2023-02-28T17:54:01;2.00;78.50
38592;DHT22;24356;48.460;11.450;2023-02-28T17:56:26;1.90;78.50
38592;DHT22;24356;48.460;11.450;2023-02-28T17:58:54;1.90;78.50
38592;DHT22;24356;48.460;11.450;2023-02-28T18:01:20;1.80;78.70
38592;DHT22;24356;48.460;11.450;2023-02-28T18:03:47;1.70;78.80
38592;DHT22;24356;48.460;11.450;2023-02-28T18:08:47;1.50;79.00
38592;DHT22;24356;48.460;11.450;2023-02-28T18:11:12;1.50;79.20
38592;DHT22;24356;48.460;11.450;2023-02-28T18:13:46;1.40;79.50
38592;DHT22;24356;48.460;11.450;2023-02-28T18:16:13;1.30;79.70
38592;DHT22;24356;48.460;11.450;2023-02-28T18:18:39;1.20;79.80
38592;DHT22;24356;48.460;11.450;2023-02-28T18:21:05;1.20;80.00
38592;DHT22;24356;48.460;11.450;2023-02-28T18:23:31;1.10;79.80